Home   Weather   Utah Kītī   Past weeks
Flag for Afghanistan

Past Weather in Utah Kītī, Afghanistan — Yesterday and Last 2 Weeks

Currently: 32 °F. Ice fog. (Weather station: Termez Airport, Afghanistan). See more current weather

Past Weather in Utah Kītī — Graph

°F

Utah Kītī Temperature Yesterday

Maximum temperature yesterday: 50 °F (at 3:00 pm)
Minimum temperature yesterday: 23 °F (at 5:30 am)
Average temperature yesterday: 33 °F

High & Low Weather Summary for the Past Weeks

 TemperatureHumidityPressure
High50 °F (Jan 27, 3:00 pm)93% (Jan 15, 1:00 pm)30.89 "Hg (Jan 15, 1:00 pm)
Low1 °F (Jan 14, 4:00 am)33% (Jan 19, 1:30 pm)30.18 "Hg (Jan 18, 1:00 pm)
Average25 °F73%30.45 "Hg
* Reported Jan 13 9:30 am — Jan 28 10:00 am, Utah Kītī. Weather by CustomWeather, © 2023

Note: Actual official high and low records may vary slightly from our data, if they occured in-between our weather recording intervals... More about our weather records

Utah Kītī Weather History for the Previous 24 Hours

Scroll right to see more
 ConditionsComfort  
Time TempWeatherWind HumidityBarometerVisibility
10:00 am
Sat, Jan 28
32 °FIce fog.No wind80%30.24 "Hg1 mi
9:30 am30 °FIce fog.No wind86%30.24 "Hg1 mi
9:00 am27 °FIce fog.2 mph93%30.24 "Hg1 mi
8:30 am25 °FIce fog.2 mph93%30.24 "Hg1 mi
8:00 am23 °FIce fog.No wind93%30.24 "Hg1 mi
7:30 am23 °FIce fog.No wind86%30.24 "Hg1 mi
7:00 am23 °FIce fog.2 mph93%30.24 "Hg1 mi
6:30 am23 °FIce fog.No wind93%30.21 "Hg1 mi
6:00 am23 °FIce fog.No wind93%30.21 "Hg1 mi
5:30 am23 °FIce fog.No wind93%30.24 "Hg1 mi
4:00 am25 °FIce fog.2 mph93%30.24 "Hg1 mi
3:30 am27 °FIce fog.2 mph86%30.24 "Hg1 mi
2:30 am27 °FIce fog.5 mph93%30.24 "Hg1 mi
2:00 am27 °FIce fog.2 mph93%30.24 "Hg1 mi
1:30 am28 °FIce fog.2 mph86%30.27 "Hg1 mi
1:00 am28 °FIce fog.5 mph86%30.27 "Hg1 mi
12:30 am30 °FIce fog.7 mph80%30.27 "Hg1 mi
12:00 am28 °FIce fog.2 mph80%30.27 "Hg1 mi
11:30 pm
Fri, Jan 27
28 °FIce fog.No wind86%30.30 "Hg1 mi
10:30 pm30 °FIce fog.No wind80%30.30 "Hg2 mi
10:00 pm32 °FIce fog.No wind75%30.30 "Hg2 mi
9:30 pm32 °FIce fog.No wind75%30.30 "Hg2 mi
8:30 pm36 °FHaze.No wind65%30.33 "Hg2 mi
8:00 pm36 °FHaze.No wind65%30.33 "Hg2 mi
7:30 pm37 °FHaze.2 mph60%30.33 "Hg3 mi
6:30 pm39 °FHaze.2 mph56%30.33 "Hg3 mi
6:00 pm41 °FHaze.7 mph53%30.33 "Hg3 mi
5:30 pm45 °FHaze.2 mph46%30.33 "Hg3 mi
4:30 pm48 °FClear.5 mph40%30.33 "Hg4 mi
3:30 pm50 °FClear.5 mph37%30.33 "Hg4 mi
3:00 pm50 °FClear.2 mph37%30.33 "Hg4 mi
2:00 pm48 °FClear.2 mph40%30.33 "Hg4 mi
1:30 pm46 °FClear.2 mph43%30.33 "Hg4 mi
1:00 pm45 °FHaze.5 mph46%N/A3 mi
12:30 pm45 °FHaze.No wind49%30.36 "Hg3 mi
12:00 pm43 °FHaze.No wind53%30.39 "Hg2 mi
11:30 am37 °FFog.2 mph75%30.39 "Hg2 mi
Weather by CustomWeather, © 2023

See weather overview